Plymouth, Indiana
Current Conditions -  °F | °C
As of 5:15 AM on Monday 26 Jan 2015 (Local Time) from KOXI Reporting Station
Clear Clear  
Wind Chill: 12°   Ceiling: Unl
Heat Index: 12°   Visibility: 10mi
Dew Point:   Wind: 3mph
Humidity: 68%   Direction: 320°NW
Pressure: 29.95"   Gusts: NA
Location:  41.34°N, 86.31°W
Report Text: KOXI 261015Z AUTO 32003KT 10SM CLR M11/M16 A2995 RMK AO1 T11101158
Loading
Personal Weather Stations






























Interactive Weather Map New forecast layout! Learn more

10-Day Weather Forecast

Advertisements
Track Severe Weather on mobile